sensor_id;sensor_type;location;lat;lon;timestamp;pressure;altitude;pressure_sealevel;temperature
70668;BMP280;58242;51.250;-1.118;2024-01-11T00:02:04;101786.97;;;7.65
70668;BMP280;58242;51.250;-1.118;2024-01-11T00:04:29;101788.31;;;7.63
70668;BMP280;58242;51.250;-1.118;2024-01-11T00:06:55;101790.94;;;7.58
70668;BMP280;58242;51.250;-1.118;2024-01-11T00:09:20;101789.09;;;7.53
70668;BMP280;58242;51.250;-1.118;2024-01-11T00:11:45;101791.75;;;7.49
70668;BMP280;58242;51.250;-1.118;2024-01-11T00:14:11;101783.47;;;7.45
70668;BMP280;58242;51.250;-1.118;2024-01-11T00:16:36;101786.94;;;7.41
70668;BMP280;58242;51.250;-1.118;2024-01-11T00:19:01;101781.59;;;7.36
70668;BMP280;58242;51.250;-1.118;2024-01-11T00:21:27;101781.06;;;7.34
70668;BMP280;58242;51.250;-1.118;2024-01-11T00:23:52;101795.38;;;7.28
70668;BMP280;58242;51.250;-1.118;2024-01-11T00:26:18;101802.84;;;7.26
70668;BMP280;58242;51.250;-1.118;2024-01-11T00:28:43;101802.56;;;7.23
70668;BMP280;58242;51.250;-1.118;2024-01-11T00:31:09;101804.69;;;7.21
70668;BMP280;58242;51.250;-1.118;2024-01-11T00:33:34;101813.44;;;7.17
70668;BMP280;58242;51.250;-1.118;2024-01-11T00:35:59;101814.75;;;7.14
70668;BMP280;58242;51.250;-1.118;2024-01-11T00:38:25;101821.41;;;7.12
70668;BMP280;58242;51.250;-1.118;2024-01-11T00:40:50;101820.84;;;7.10
70668;BMP280;58242;51.250;-1.118;2024-01-11T00:43:15;101824.84;;;7.07
70668;BMP280;58242;51.250;-1.118;2024-01-11T00:45:41;101829.59;;;7.05
70668;BMP280;58242;51.250;-1.118;2024-01-11T00:48:06;101834.41;;;7.03
70668;BMP280;58242;51.250;-1.118;2024-01-11T00:50:32;101829.84;;;6.99
70668;BMP280;58242;51.250;-1.118;2024-01-11T00:52:57;101845.53;;;6.96
70668;BMP280;58242;51.250;-1.118;2024-01-11T00:55:22;101855.06;;;6.92
70668;BMP280;58242;51.250;-1.118;2024-01-11T00:57:49;101848.41;;;6.89
70668;BMP280;58242;51.250;-1.118;2024-01-11T01:00:15;101856.09;;;6.86
70668;BMP280;58242;51.250;-1.118;2024-01-11T01:02:41;101849.44;;;6.83
70668;BMP280;58242;51.250;-1.118;2024-01-11T01:05:07;101856.88;;;6.82
70668;BMP280;58242;51.250;-1.118;2024-01-11T01:07:32;101852.84;;;6.79
70668;BMP280;58242;51.250;-1.118;2024-01-11T01:09:58;101854.19;;;6.77
70668;BMP280;58242;51.250;-1.118;2024-01-11T01:12:23;101861.34;;;6.76
70668;BMP280;58242;51.250;-1.118;2024-01-11T01:14:50;101863.47;;;6.74
70668;BMP280;58242;51.250;-1.118;2024-01-11T01:17:16;101861.06;;;6.73
70668;BMP280;58242;51.250;-1.118;2024-01-11T01:19:41;101863.16;;;6.71
70668;BMP280;58242;51.250;-1.118;2024-01-11T01:22:07;101865.28;;;6.69
70668;BMP280;58242;51.250;-1.118;2024-01-11T01:24:32;101869.28;;;6.66
70668;BMP280;58242;51.250;-1.118;2024-01-11T01:26:58;101869.50;;;6.65
70668;BMP280;58242;51.250;-1.118;2024-01-11T01:29:23;101868.72;;;6.65
70668;BMP280;58242;51.250;-1.118;2024-01-11T01:31:49;101879.63;;;6.63
70668;BMP280;58242;51.250;-1.118;2024-01-11T01:34:14;101872.94;;;6.61
70668;BMP280;58242;51.250;-1.118;2024-01-11T01:36:40;101867.09;;;6.59
70668;BMP280;58242;51.250;-1.118;2024-01-11T01:39:05;101873.44;;;6.58
70668;BMP280;58242;51.250;-1.118;2024-01-11T01:41:31;101869.47;;;6.55
70668;BMP280;58242;51.250;-1.118;2024-01-11T01:43:56;101876.06;;;6.53
70668;BMP280;58242;51.250;-1.118;2024-01-11T01:46:23;101885.34;;;6.50
70668;BMP280;58242;51.250;-1.118;2024-01-11T01:48:50;101879.47;;;6.48
70668;BMP280;58242;51.250;-1.118;2024-01-11T01:51:15;101877.34;;;6.46
70668;BMP280;58242;51.250;-1.118;2024-01-11T01:53:41;101881.84;;;6.45
70668;BMP280;58242;51.250;-1.118;2024-01-11T01:56:08;101879.47;;;6.44
70668;BMP280;58242;51.250;-1.118;2024-01-11T01:58:34;101888.47;;;6.43
70668;BMP280;58242;51.250;-1.118;2024-01-11T02:01:00;101887.91;;;6.41
70668;BMP280;58242;51.250;-1.118;2024-01-11T02:03:27;101896.16;;;6.39
70668;BMP280;58242;51.250;-1.118;2024-01-11T02:05:54;101894.53;;;6.38
70668;BMP280;58242;51.250;-1.118;2024-01-11T02:08:21;101899.06;;;6.38
70668;BMP280;58242;51.250;-1.118;2024-01-11T02:10:47;101901.16;;;6.36
70668;BMP280;58242;51.250;-1.118;2024-01-11T02:13:13;101909.13;;;6.36
70668;BMP280;58242;51.250;-1.118;2024-01-11T02:15:38;101908.56;;;6.34
70668;BMP280;58242;51.250;-1.118;2024-01-11T02:18:04;101900.06;;;6.32
70668;BMP280;58242;51.250;-1.118;2024-01-11T02:20:31;101907.25;;;6.32
70668;BMP280;58242;51.250;-1.118;2024-01-11T02:23:00;101918.91;;;6.31
70668;BMP280;58242;51.250;-1.118;2024-01-11T02:25:26;101920.75;;;6.30
70668;BMP280;58242;51.250;-1.118;2024-01-11T02:27:51;101925.25;;;6.30
70668;BMP280;58242;51.250;-1.118;2024-01-11T02:30:17;101922.88;;;6.28
70668;BMP280;58242;51.250;-1.118;2024-01-11T02:32:43;101930.84;;;6.28
70668;BMP280;58242;51.250;-1.118;2024-01-11T02:35:12;101921.25;;;6.27
70668;BMP280;58242;51.250;-1.118;2024-01-11T02:37:38;101927.63;;;6.26
70668;BMP280;58242;51.250;-1.118;2024-01-11T02:40:06;101931.91;;;6.27
70668;BMP280;58242;51.250;-1.118;2024-01-11T02:42:33;101938.53;;;6.25
70668;BMP280;58242;51.250;-1.118;2024-01-11T02:44:58;101934.00;;;6.25
70668;BMP280;58242;51.250;-1.118;2024-01-11T02:47:24;101945.41;;;6.26
70668;BMP280;58242;51.250;-1.118;2024-01-11T02:49:49;101950.25;;;6.29
70668;BMP280;58242;51.250;-1.118;2024-01-11T02:52:15;101947.88;;;6.32
70668;BMP280;58242;51.250;-1.118;2024-01-11T02:54:41;101954.81;;;6.33
70668;BMP280;58242;51.250;-1.118;2024-01-11T02:57:06;101965.97;;;6.35
70668;BMP280;58242;51.250;-1.118;2024-01-11T02:59:31;101962.78;;;6.33
70668;BMP280;58242;51.250;-1.118;2024-01-11T03:01:57;101961.16;;;6.32
70668;BMP280;58242;51.250;-1.118;2024-01-11T03:04:22;101968.56;;;6.30
70668;BMP280;58242;51.250;-1.118;2024-01-11T03:06:47;101965.38;;;6.28
70668;BMP280;58242;51.250;-1.118;2024-01-11T03:09:13;101976.25;;;6.27
70668;BMP280;58242;51.250;-1.118;2024-01-11T03:11:38;101968.53;;;6.25
70668;BMP280;58242;51.250;-1.118;2024-01-11T03:14:04;101974.09;;;6.24
70668;BMP280;58242;51.250;-1.118;2024-01-11T03:16:29;101978.88;;;6.22
70668;BMP280;58242;51.250;-1.118;2024-01-11T03:18:55;101984.41;;;6.20
70668;BMP280;58242;51.250;-1.118;2024-01-11T03:21:20;101982.28;;;6.17
70668;BMP280;58242;51.250;-1.118;2024-01-11T03:23:45;101984.94;;;6.17
70668;BMP280;58242;51.250;-1.118;2024-01-11T03:26:17;101987.81;;;6.16
70668;BMP280;58242;51.250;-1.118;2024-01-11T03:28:43;101989.94;;;6.14
70668;BMP280;58242;51.250;-1.118;2024-01-11T03:31:09;101988.31;;;6.13
70668;BMP280;58242;51.250;-1.118;2024-01-11T03:33:35;101991.22;;;6.12
70668;BMP280;58242;51.250;-1.118;2024-01-11T03:36:10;101990.69;;;6.10
70668;BMP280;58242;51.250;-1.118;2024-01-11T03:38:36;101989.06;;;6.09
70668;BMP280;58242;51.250;-1.118;2024-01-11T03:41:02;101993.03;;;6.06
70668;BMP280;58242;51.250;-1.118;2024-01-11T03:43:27;101993.03;;;6.06
70668;BMP280;58242;51.250;-1.118;2024-01-11T03:45:53;101995.91;;;6.05
70668;BMP280;58242;51.250;-1.118;2024-01-11T03:48:19;101999.63;;;6.04
70668;BMP280;58242;51.250;-1.118;2024-01-11T03:50:44;102009.44;;;6.03
70668;BMP280;58242;51.250;-1.118;2024-01-11T03:53:10;102005.44;;;6.01
70668;BMP280;58242;51.250;-1.118;2024-01-11T03:55:35;102010.75;;;6.01
70668;BMP280;58242;51.250;-1.118;2024-01-11T03:58:00;102003.81;;;6.00
70668;BMP280;58242;51.250;-1.118;2024-01-11T04:00:25;102005.44;;;6.01
70668;BMP280;58242;51.250;-1.118;2024-01-11T04:02:51;102007.53;;;5.99
70668;BMP280;58242;51.250;-1.118;2024-01-11T04:05:16;102010.44;;;5.97
70668;BMP280;58242;51.250;-1.118;2024-01-11T04:07:42;102009.63;;;5.97
70668;BMP280;58242;51.250;-1.118;2024-01-11T04:10:08;102023.94;;;5.96
70668;BMP280;58242;51.250;-1.118;2024-01-11T04:12:35;102023.94;;;5.96
70668;BMP280;58242;51.250;-1.118;2024-01-11T04:15:01;102022.59;;;5.94
70668;BMP280;58242;51.250;-1.118;2024-01-11T04:17:27;102022.84;;;5.92
70668;BMP280;58242;51.250;-1.118;2024-01-11T04:19:52;102025.50;;;5.92
70668;BMP280;58242;51.250;-1.118;2024-01-11T04:22:17;102027.34;;;5.92
70668;BMP280;58242;51.250;-1.118;2024-01-11T04:24:43;102031.88;;;5.91
70668;BMP280;58242;51.250;-1.118;2024-01-11T04:27:08;102044.34;;;5.91
70668;BMP280;58242;51.250;-1.118;2024-01-11T04:29:34;102029.44;;;5.90
70668;BMP280;58242;51.250;-1.118;2024-01-11T04:31:59;102034.75;;;5.90
70668;BMP280;58242;51.250;-1.118;2024-01-11T04:34:24;102031.31;;;5.89
70668;BMP280;58242;51.250;-1.118;2024-01-11T04:36:50;102037.66;;;5.88
70668;BMP280;58242;51.250;-1.118;2024-01-11T04:39:15;102033.97;;;5.89
70668;BMP280;58242;51.250;-1.118;2024-01-11T04:41:41;102044.56;;;5.89
70668;BMP280;58242;51.250;-1.118;2024-01-11T04:44:06;102049.88;;;5.89
70668;BMP280;58242;51.250;-1.118;2024-01-11T04:46:32;102049.88;;;5.89
70668;BMP280;58242;51.250;-1.118;2024-01-11T04:48:57;102056.50;;;5.87
70668;BMP280;58242;51.250;-1.118;2024-01-11T04:51:23;102054.66;;;5.87
70668;BMP280;58242;51.250;-1.118;2024-01-11T04:53:48;102054.88;;;5.86
70668;BMP280;58242;51.250;-1.118;2024-01-11T04:56:14;102052.22;;;5.86
70668;BMP280;58242;51.250;-1.118;2024-01-11T04:58:41;102051.19;;;5.87
70668;BMP280;58242;51.250;-1.118;2024-01-11T05:01:11;102058.88;;;5.88
70668;BMP280;58242;51.250;-1.118;2024-01-11T05:03:37;102058.88;;;5.88
70668;BMP280;58242;51.250;-1.118;2024-01-11T05:06:02;102050.69;;;5.90
70668;BMP280;58242;51.250;-1.118;2024-01-11T05:08:29;102044.56;;;5.89
70668;BMP280;58242;51.250;-1.118;2024-01-11T05:10:54;102046.19;;;5.90
70668;BMP280;58242;51.250;-1.118;2024-01-11T05:13:20;102052.31;;;5.91
70668;BMP280;58242;51.250;-1.118;2024-01-11T05:15:45;102052.53;;;5.89
70668;BMP280;58242;51.250;-1.118;2024-01-11T05:18:11;102055.19;;;5.89
70668;BMP280;58242;51.250;-1.118;2024-01-11T05:20:37;102067.44;;;5.90
70668;BMP280;58242;51.250;-1.118;2024-01-11T05:23:03;102060.50;;;5.89
70668;BMP280;58242;51.250;-1.118;2024-01-11T05:25:29;102066.63;;;5.90
70668;BMP280;58242;51.250;-1.118;2024-01-11T05:27:59;102058.88;;;5.88
70668;BMP280;58242;51.250;-1.118;2024-01-11T05:30:24;102072.97;;;5.89
70668;BMP280;58242;51.250;-1.118;2024-01-11T05:32:49;102078.53;;;5.87
70668;BMP280;58242;51.250;-1.118;2024-01-11T05:35:15;102072.41;;;5.87
70668;BMP280;58242;51.250;-1.118;2024-01-11T05:37:40;102075.06;;;5.87
70668;BMP280;58242;51.250;-1.118;2024-01-11T05:40:06;102082.22;;;5.86
70668;BMP280;58242;51.250;-1.118;2024-01-11T05:42:32;102089.16;;;5.87
70668;BMP280;58242;51.250;-1.118;2024-01-11T05:44:58;102092.03;;;5.86
70668;BMP280;58242;51.250;-1.118;2024-01-11T05:47:23;102098.16;;;5.86
70668;BMP280;58242;51.250;-1.118;2024-01-11T05:49:49;102103.25;;;5.88
70668;BMP280;58242;51.250;-1.118;2024-01-11T05:52:15;102099.78;;;5.87
70668;BMP280;58242;51.250;-1.118;2024-01-11T05:54:40;102101.34;;;5.88
70668;BMP280;58242;51.250;-1.118;2024-01-11T05:57:06;102105.63;;;5.89
70668;BMP280;58242;51.250;-1.118;2024-01-11T05:59:32;102108.28;;;5.89
70668;BMP280;58242;51.250;-1.118;2024-01-11T06:01:58;102110.94;;;5.89
70668;BMP280;58242;51.250;-1.118;2024-01-11T06:04:26;102106.66;;;5.88
70668;BMP280;58242;51.250;-1.118;2024-01-11T06:06:51;102106.13;;;5.86
70668;BMP280;58242;51.250;-1.118;2024-01-11T06:09:17;102109.59;;;5.87
70668;BMP280;58242;51.250;-1.118;2024-01-11T06:11:42;102115.13;;;5.85
70668;BMP280;58242;51.250;-1.118;2024-01-11T06:14:07;102118.03;;;5.84
70668;BMP280;58242;51.250;-1.118;2024-01-11T06:16:33;102115.38;;;5.84
70668;BMP280;58242;51.250;-1.118;2024-01-11T06:18:58;102119.88;;;5.83
70668;BMP280;58242;51.250;-1.118;2024-01-11T06:21:24;102120.94;;;5.82
70668;BMP280;58242;51.250;-1.118;2024-01-11T06:23:49;102125.44;;;5.82
70668;BMP280;58242;51.250;-1.118;2024-01-11T06:26:14;102126.25;;;5.82
70668;BMP280;58242;51.250;-1.118;2024-01-11T06:28:40;102129.13;;;5.81
70668;BMP280;58242;51.250;-1.118;2024-01-11T06:31:05;102126.72;;;5.80
70668;BMP280;58242;51.250;-1.118;2024-01-11T06:33:31;102140.00;;;5.80
70668;BMP280;58242;51.250;-1.118;2024-01-11T06:35:58;102133.09;;;5.79
70668;BMP280;58242;51.250;-1.118;2024-01-11T06:38:23;102139.44;;;5.78
70668;BMP280;58242;51.250;-1.118;2024-01-11T06:40:49;102130.66;;;5.77
70668;BMP280;58242;51.250;-1.118;2024-01-11T06:43:15;102133.56;;;5.76
70668;BMP280;58242;51.250;-1.118;2024-01-11T06:45:43;102139.69;;;5.76
70668;BMP280;58242;51.250;-1.118;2024-01-11T06:48:08;102144.44;;;5.74
70668;BMP280;58242;51.250;-1.118;2024-01-11T06:50:34;102148.38;;;5.72
70668;BMP280;58242;51.250;-1.118;2024-01-11T06:53:00;102154.50;;;5.72
70668;BMP280;58242;51.250;-1.118;2024-01-11T06:55:25;102147.56;;;5.71
70668;BMP280;58242;51.250;-1.118;2024-01-11T06:57:50;102151.25;;;5.70
70668;BMP280;58242;51.250;-1.118;2024-01-11T07:00:16;102153.09;;;5.70
70668;BMP280;58242;51.250;-1.118;2024-01-11T07:02:41;102158.69;;;5.68
70668;BMP280;58242;51.250;-1.118;2024-01-11T07:05:07;102164.78;;;5.69
70668;BMP280;58242;51.250;-1.118;2024-01-11T07:07:33;102174.34;;;5.70
70668;BMP280;58242;51.250;-1.118;2024-01-11T07:09:58;102166.38;;;5.70
70668;BMP280;58242;51.250;-1.118;2024-01-11T07:12:24;102172.50;;;5.70
70668;BMP280;58242;51.250;-1.118;2024-01-11T07:14:51;102174.34;;;5.70
70668;BMP280;58242;51.250;-1.118;2024-01-11T07:17:16;102179.91;;;5.68
70668;BMP280;58242;51.250;-1.118;2024-01-11T07:19:42;102172.97;;;5.67
70668;BMP280;58242;51.250;-1.118;2024-01-11T07:22:07;102180.13;;;5.67
70668;BMP280;58242;51.250;-1.118;2024-01-11T07:24:32;102177.97;;;5.64
70668;BMP280;58242;51.250;-1.118;2024-01-11T07:27:04;102181.44;;;5.64
70668;BMP280;58242;51.250;-1.118;2024-01-11T07:29:29;102179.81;;;5.63
70668;BMP280;58242;51.250;-1.118;2024-01-11T07:31:55;102186.94;;;5.63
70668;BMP280;58242;51.250;-1.118;2024-01-11T07:34:20;102196.75;;;5.63
70668;BMP280;58242;51.250;-1.118;2024-01-11T07:36:45;102187.97;;;5.62
70668;BMP280;58242;51.250;-1.118;2024-01-11T07:39:11;102186.38;;;5.61
70668;BMP280;58242;51.250;-1.118;2024-01-11T07:41:36;102205.75;;;5.62
70668;BMP280;58242;51.250;-1.118;2024-01-11T07:44:01;102202.53;;;5.60
70668;BMP280;58242;51.250;-1.118;2024-01-11T07:46:27;102209.69;;;5.59
70668;BMP280;58242;51.250;-1.118;2024-01-11T07:48:52;102210.72;;;5.58
70668;BMP280;58242;51.250;-1.118;2024-01-11T07:51:17;102208.34;;;5.57
70668;BMP280;58242;51.250;-1.118;2024-01-11T07:53:44;102221.34;;;5.58
70668;BMP280;58242;51.250;-1.118;2024-01-11T07:56:10;102224.00;;;5.58
70668;BMP280;58242;51.250;-1.118;2024-01-11T07:58:35;102231.97;;;5.58
70668;BMP280;58242;51.250;-1.118;2024-01-11T08:01:03;102231.97;;;5.58
70668;BMP280;58242;51.250;-1.118;2024-01-11T08:03:29;102227.72;;;5.57
70668;BMP280;58242;51.250;-1.118;2024-01-11T08:05:55;102230.91;;;5.59
70668;BMP280;58242;51.250;-1.118;2024-01-11T08:08:20;102249.50;;;5.59
70668;BMP280;58242;51.250;-1.118;2024-01-11T08:10:47;102245.00;;;5.60
70668;BMP280;58242;51.250;-1.118;2024-01-11T08:13:15;102240.50;;;5.60
70668;BMP280;58242;51.250;-1.118;2024-01-11T08:15:40;102247.41;;;5.61
70668;BMP280;58242;51.250;-1.118;2024-01-11T08:18:07;102245.53;;;5.62
70668;BMP280;58242;51.250;-1.118;2024-01-11T08:20:32;102254.13;;;5.63
70668;BMP280;58242;51.250;-1.118;2024-01-11T08:22:58;102256.78;;;5.63
70668;BMP280;58242;51.250;-1.118;2024-01-11T08:25:23;102255.47;;;5.66
70668;BMP280;58242;51.250;-1.118;2024-01-11T08:27:48;102260.56;;;5.67
70668;BMP280;58242;51.250;-1.118;2024-01-11T08:30:14;102268.28;;;5.69
70668;BMP280;58242;51.250;-1.118;2024-01-11T08:32:41;102267.00;;;5.71
70668;BMP280;58242;51.250;-1.118;2024-01-11T08:35:08;102267.31;;;5.75
70668;BMP280;58242;51.250;-1.118;2024-01-11T08:37:35;102267.09;;;5.76
70668;BMP280;58242;51.250;-1.118;2024-01-11T08:40:01;102264.97;;;5.78
70668;BMP280;58242;51.250;-1.118;2024-01-11T08:42:26;102270.88;;;5.80
70668;BMP280;58242;51.250;-1.118;2024-01-11T08:44:52;102282.84;;;5.82
70668;BMP280;58242;51.250;-1.118;2024-01-11T08:47:17;102290.31;;;5.85
70668;BMP280;58242;51.250;-1.118;2024-01-11T08:49:43;102288.25;;;5.87
70668;BMP280;58242;51.250;-1.118;2024-01-11T08:52:08;102286.72;;;5.91
70668;BMP280;58242;51.250;-1.118;2024-01-11T08:54:34;102287.28;;;5.93
70668;BMP280;58242;51.250;-1.118;2024-01-11T08:56:59;102286.78;;;5.96
70668;BMP280;58242;51.250;-1.118;2024-01-11T08:59:25;102286.06;;;6.00
70668;BMP280;58242;51.250;-1.118;2024-01-11T09:01:51;102295.97;;;6.05
70668;BMP280;58242;51.250;-1.118;2024-01-11T09:04:17;102289.34;;;6.07
70668;BMP280;58242;51.250;-1.118;2024-01-11T09:06:43;102288.63;;;6.12
70668;BMP280;58242;51.250;-1.118;2024-01-11T09:09:11;102295.66;;;6.17
70668;BMP280;58242;51.250;-1.118;2024-01-11T09:11:39;102292.28;;;6.22
70668;BMP280;58242;51.250;-1.118;2024-01-11T09:14:06;102297.97;;;6.30
70668;BMP280;58242;51.250;-1.118;2024-01-11T09:16:32;102298.63;;;6.37
70668;BMP280;58242;51.250;-1.118;2024-01-11T09:18:58;102303.56;;;6.49
70668;BMP280;58242;51.250;-1.118;2024-01-11T09:21:26;102308.38;;;6.68
70668;BMP280;58242;51.250;-1.118;2024-01-11T09:23:51;102315.00;;;6.87
70668;BMP280;58242;51.250;-1.118;2024-01-11T09:26:16;102324.84;;;7.07
70668;BMP280;58242;51.250;-1.118;2024-01-11T09:28:42;102325.03;;;7.22
70668;BMP280;58242;51.250;-1.118;2024-01-11T09:31:07;102330.22;;;7.33
70668;BMP280;58242;51.250;-1.118;2024-01-11T09:33:32;102331.41;;;7.42
70668;BMP280;58242;51.250;-1.118;2024-01-11T09:35:58;102330.44;;;7.52
70668;BMP280;58242;51.250;-1.118;2024-01-11T09:38:23;102335.34;;;7.65
70668;BMP280;58242;51.250;-1.118;2024-01-11T09:41:05;102350.94;;;7.78
70668;BMP280;58242;51.250;-1.118;2024-01-11T09:43:34;102347.81;;;7.85
70668;BMP280;58242;51.250;-1.118;2024-01-11T09:46:04;102346.28;;;7.89
70668;BMP280;58242;51.250;-1.118;2024-01-11T09:48:32;102339.91;;;7.95
70668;BMP280;58242;51.250;-1.118;2024-01-11T09:50:59;102343.25;;;8.02
70668;BMP280;58242;51.250;-1.118;2024-01-11T09:53:26;102342.78;;;8.15
70668;BMP280;58242;51.250;-1.118;2024-01-11T09:55:53;102352.00;;;8.33
70668;BMP280;58242;51.250;-1.118;2024-01-11T09:58:20;102362.31;;;8.55
70668;BMP280;58242;51.250;-1.118;2024-01-11T10:00:46;102360.66;;;8.90
70668;BMP280;58242;51.250;-1.118;2024-01-11T10:03:17;102361.94;;;9.23
70668;BMP280;58242;51.250;-1.118;2024-01-11T10:05:44;102371.16;;;9.61
70668;BMP280;58242;51.250;-1.118;2024-01-11T10:08:10;102364.59;;;9.97
70668;BMP280;58242;51.250;-1.118;2024-01-11T10:10:36;102358.72;;;10.34
70668;BMP280;58242;51.250;-1.118;2024-01-11T10:13:02;102364.06;;;10.73
70668;BMP280;58242;51.250;-1.118;2024-01-11T10:15:28;102364.47;;;11.19
70668;BMP280;58242;51.250;-1.118;2024-01-11T10:17:53;102363.97;;;11.69
70668;BMP280;58242;51.250;-1.118;2024-01-11T10:20:18;102373.78;;;12.25
70668;BMP280;58242;51.250;-1.118;2024-01-11T10:22:49;102361.41;;;12.89
70668;BMP280;58242;51.250;-1.118;2024-01-11T10:25:16;102366.38;;;13.46
70668;BMP280;58242;51.250;-1.118;2024-01-11T10:27:44;102375.56;;;13.86
70668;BMP280;58242;51.250;-1.118;2024-01-11T10:30:11;102369.09;;;14.05
70668;BMP280;58242;51.250;-1.118;2024-01-11T10:32:45;102365.41;;;14.01
70668;BMP280;58242;51.250;-1.118;2024-01-11T10:35:10;102364.81;;;13.86
70668;BMP280;58242;51.250;-1.118;2024-01-11T10:37:37;102363.66;;;13.69
70668;BMP280;58242;51.250;-1.118;2024-01-11T10:40:06;102368.53;;;13.49
70668;BMP280;58242;51.250;-1.118;2024-01-11T10:42:49;102355.44;;;13.20
70668;BMP280;58242;51.250;-1.118;2024-01-11T10:45:17;102361.41;;;12.89
70668;BMP280;58242;51.250;-1.118;2024-01-11T10:48:02;102366.03;;;12.61
70668;BMP280;58242;51.250;-1.118;2024-01-11T10:50:36;102369.63;;;12.42
70668;BMP280;58242;51.250;-1.118;2024-01-11T10:53:36;102372.38;;;12.32
70668;BMP280;58242;51.250;-1.118;2024-01-11T10:56:05;102372.47;;;12.23
70668;BMP280;58242;51.250;-1.118;2024-01-11T10:58:34;102369.56;;;12.19
70668;BMP280;58242;51.250;-1.118;2024-01-11T11:01:01;102369.81;;;12.18
70668;BMP280;58242;51.250;-1.118;2024-01-11T11:03:27;102369.59;;;12.14
70668;BMP280;58242;51.250;-1.118;2024-01-11T11:05:53;102375.28;;;12.08
70668;BMP280;58242;51.250;-1.118;2024-01-11T11:08:22;102368.88;;;11.99
70668;BMP280;58242;51.250;-1.118;2024-01-11T11:10:48;102367.56;;;11.97
70668;BMP280;58242;51.250;-1.118;2024-01-11T11:13:14;102370.50;;;12.00
70668;BMP280;58242;51.250;-1.118;2024-01-11T11:15:42;102372.34;;;12.05
70668;BMP280;58242;51.250;-1.118;2024-01-11T11:18:12;102378.53;;;12.05
70668;BMP280;58242;51.250;-1.118;2024-01-11T11:20:39;102372.63;;;11.98
70668;BMP280;58242;51.250;-1.118;2024-01-11T11:23:08;102371.09;;;11.93
70668;BMP280;58242;51.250;-1.118;2024-01-11T11:25:37;102371.41;;;11.86
70668;BMP280;58242;51.250;-1.118;2024-01-11T11:28:05;102379.72;;;11.80
70668;BMP280;58242;51.250;-1.118;2024-01-11T11:30:31;102373.88;;;11.73
70668;BMP280;58242;51.250;-1.118;2024-01-11T11:32:56;102376.88;;;11.67
70668;BMP280;58242;51.250;-1.118;2024-01-11T11:35:25;102375.28;;;11.61
70668;BMP280;58242;51.250;-1.118;2024-01-11T11:37:56;102378.28;;;11.55
70668;BMP280;58242;51.250;-1.118;2024-01-11T11:40:38;102379.91;;;11.51
70668;BMP280;58242;51.250;-1.118;2024-01-11T11:43:08;102385.53;;;11.49
70668;BMP280;58242;51.250;-1.118;2024-01-11T11:45:33;102388.47;;;11.53
70668;BMP280;58242;51.250;-1.118;2024-01-11T11:47:59;102386.84;;;11.52
70668;BMP280;58242;51.250;-1.118;2024-01-11T11:50:24;102400.78;;;11.54
70668;BMP280;58242;51.250;-1.118;2024-01-11T11:52:57;102394.34;;;11.55
70668;BMP280;58242;51.250;-1.118;2024-01-11T11:55:23;102397.56;;;11.52
70668;BMP280;58242;51.250;-1.118;2024-01-11T11:57:52;102405.38;;;11.48
70668;BMP280;58242;51.250;-1.118;2024-01-11T12:00:22;102401.34;;;11.46
70668;BMP280;58242;51.250;-1.118;2024-01-11T12:02:49;102402.44;;;11.45
70668;BMP280;58242;51.250;-1.118;2024-01-11T12:05:17;102400.56;;;11.41
70668;BMP280;58242;51.250;-1.118;2024-01-11T12:07:43;102398.72;;;11.36
70668;BMP280;58242;51.250;-1.118;2024-01-11T12:10:09;102394.16;;;11.32
70668;BMP280;58242;51.250;-1.118;2024-01-11T12:12:36;102390.41;;;11.33
70668;BMP280;58242;51.250;-1.118;2024-01-11T12:15:04;102390.66;;;11.36
70668;BMP280;58242;51.250;-1.118;2024-01-11T12:17:29;102391.19;;;11.38
70668;BMP280;58242;51.250;-1.118;2024-01-11T12:19:55;102393.59;;;11.40
70668;BMP280;58242;51.250;-1.118;2024-01-11T12:22:21;102390.94;;;11.35
70668;BMP280;58242;51.250;-1.118;2024-01-11T12:24:47;102396.59;;;11.28
70668;BMP280;58242;51.250;-1.118;2024-01-11T12:27:12;102398.44;;;11.23
70668;BMP280;58242;51.250;-1.118;2024-01-11T12:29:40;102399.25;;;11.24
70668;BMP280;58242;51.250;-1.118;2024-01-11T12:32:06;102400.84;;;11.25
70668;BMP280;58242;51.250;-1.118;2024-01-11T12:34:35;102407.31;;;11.19
70668;BMP280;58242;51.250;-1.118;2024-01-11T12:37:01;102399.53;;;11.22
70668;BMP280;58242;51.250;-1.118;2024-01-11T12:39:30;102398.19;;;11.20
70668;BMP280;58242;51.250;-1.118;2024-01-11T12:41:56;102400.84;;;11.20
70668;BMP280;58242;51.250;-1.118;2024-01-11T12:44:23;102400.34;;;11.23
70668;BMP280;58242;51.250;-1.118;2024-01-11T12:46:50;102397.13;;;11.26
70668;BMP280;58242;51.250;-1.118;2024-01-11T12:49:16;102405.69;;;11.28
70668;BMP280;58242;51.250;-1.118;2024-01-11T12:51:41;102397.13;;;11.26
70668;BMP280;58242;51.250;-1.118;2024-01-11T12:54:12;102394.44;;;11.26
70668;BMP280;58242;51.250;-1.118;2024-01-11T12:56:41;102396.59;;;11.19
70668;BMP280;58242;51.250;-1.118;2024-01-11T12:59:08;102401.72;;;11.01
70668;BMP280;58242;51.250;-1.118;2024-01-11T13:01:35;102398.81;;;10.93
70668;BMP280;58242;51.250;-1.118;2024-01-11T13:04:01;102404.69;;;10.90
70668;BMP280;58242;51.250;-1.118;2024-01-11T13:06:31;102407.91;;;10.82
70668;BMP280;58242;51.250;-1.118;2024-01-11T13:08:57;102404.97;;;10.78
70668;BMP280;58242;51.250;-1.118;2024-01-11T13:11:22;102404.44;;;10.77
70668;BMP280;58242;51.250;-1.118;2024-01-11T13:13:49;102410.31;;;10.78
70668;BMP280;58242;51.250;-1.118;2024-01-11T13:16:16;102407.91;;;10.82
70668;BMP280;58242;51.250;-1.118;2024-01-11T13:18:41;102405.50;;;10.85
70668;BMP280;58242;51.250;-1.118;2024-01-11T13:21:07;102397.47;;;10.90
70668;BMP280;58242;51.250;-1.118;2024-01-11T13:23:32;102387.56;;;11.00
70668;BMP280;58242;51.250;-1.118;2024-01-11T13:25:58;102388.31;;;11.11
70668;BMP280;58242;51.250;-1.118;2024-01-11T13:28:24;102390.44;;;11.18
70668;BMP280;58242;51.250;-1.118;2024-01-11T13:30:49;102394.69;;;11.24
70668;BMP280;58242;51.250;-1.118;2024-01-11T13:33:15;102394.72;;;11.29
70668;BMP280;58242;51.250;-1.118;2024-01-11T13:35:44;102393.88;;;11.38
70668;BMP280;58242;51.250;-1.118;2024-01-11T13:38:10;102398.41;;;11.47
70668;BMP280;58242;51.250;-1.118;2024-01-11T13:40:35;102400.78;;;11.54
70668;BMP280;58242;51.250;-1.118;2024-01-11T13:43:01;102393.81;;;11.53
70668;BMP280;58242;51.250;-1.118;2024-01-11T13:45:28;102396.78;;;11.51
70668;BMP280;58242;51.250;-1.118;2024-01-11T13:47:54;102400.50;;;11.55
70668;BMP280;58242;51.250;-1.118;2024-01-11T13:50:21;102394.88;;;11.57